• Join FlightAware (Why Join?)
  • Login
  • US Flag 
10:01AM EDT


 

Airport Tracker/Info


-or-


 

Live Flight TrackerFlight Track Log ✈ DAL6055 ✈ 17-Apr-2013 ✈ KDTW - KSDF

Flight Track Log - Related Links

Times and Time Zones

All times are in EDT time to prevent confusion due to time zone crossing. See the DAL6055 flight status page for this flight to view local times or setup timezone preferences in your user account.

Time Position Orientation Groundspeed Altitude Reporting Facility
EDT Latitude Longitude Course Direction KTS MPH feet Rate Location/Type
09:10AM 42.2314 -83.3328 180° South 152 175 1,300  Level FAA TRACON SMA TRACON (SMA)
09:11AM 42.2400 -83.3203 47° Northeast 161 185 1,900 2,100 Climbing FAA TRACON SMA TRACON (SMA)
09:11AM 42.2522 -83.3025 47° Northeast 177 204 2,700 1,740 Climbing FAA TRACON SMA TRACON (SMA)
09:11AM 42.2636 -83.2875 44° Northeast 195 224 3,100 1,620 Climbing FAA TRACON SMA TRACON (SMA)
09:12AM 42.2797 -83.2658 45° Northeast 220 253 3,800 1,920 Climbing FAA TRACON SMA TRACON (SMA)
09:12AM 42.2925 -83.2483 45° Northeast 230 265 4,400 1,920 Climbing FAA TRACON SMA TRACON (SMA)
09:12AM 42.3072 -83.2239 51° Northeast 244 281 5,100 1,680 Climbing FAA TRACON SMA TRACON (SMA)
09:13AM 42.3108 -83.2019 77° East 261 300 5,500 2,040 Climbing FAA TRACON SMA TRACON (SMA)
09:13AM 42.2972 -83.1611 114° Southeast 270 311 6,500 2,520 Climbing FAA TRACON SMA TRACON (SMA)
09:13AM 42.2844 -83.1347 123° Southeast 272 313 7,200 2,220 Climbing FAA TRACON SMA TRACON (SMA)
09:14AM 41.8585 -83.5752 180° South  Level Estimated
09:14AM 42.2714 -83.1081 123° Southeast 274 315 8,000  Level FAA TRACON SMA TRACON (SMA)
09:14AM 42.2547 -83.0744 124° Southeast 277 319 8,700 1,680 Climbing FAA TRACON SMA TRACON (SMA)
09:14AM 42.2381 -83.0486 131° Southeast 310 357 9,100 1,380 Climbing FAA TRACON SMA TRACON (SMA)
09:15AM 41.7700 -83.6303 180° South  Level Estimated
09:15AM 42.2142 -83.0422 169° South 288 331 9,600  Level FAA TRACON SMA TRACON (SMA)
09:15AM 42.1853 -83.0542 197° South 274 315 10,600 2,100 Climbing FAA TRACON SMA TRACON (SMA)
09:15AM 42.1600 -83.0681 202° Southwest 349 402 11,000 1,020 Climbing FAA TRACON SMA TRACON (SMA)
09:16AM 42.1408 -83.0781 201° Southwest 288 331 11,300 1,320 Climbing FAA TRACON SMA TRACON (SMA)
09:16AM 42.1069 -83.0972 203° Southwest 306 352 11,900 1,500 Climbing FAA TRACON SMA TRACON (SMA)
09:16AM 42.0814 -83.1117 203° Southwest 315 362 12,300 1,260 Climbing FAA TRACON SMA TRACON (SMA)
09:17AM 42.0578 -83.1239 201° Southwest 317 365 12,800 1,380 Climbing FAA TRACON SMA TRACON (SMA)
09:17AM 42.0297 -83.1406 204° Southwest 324 373 13,200 1,620 Climbing FAA TRACON SMA TRACON (SMA)
09:17AM 41.9967 -83.1586 202° Southwest 328 377 13,900 1,620 Climbing FAA TRACON SMA TRACON (SMA)
09:18AM 41.9700 -83.1739 203° Southwest 334 384 14,300 1,500 Climbing FAA TRACON SMA TRACON (SMA)
09:18AM 41.9356 -83.1931 202° Southwest 340 391 14,900 1,620 Climbing FAA TRACON SMA TRACON (SMA)
09:18AM 41.9081 -83.2089 203° Southwest 346 398 15,400 1,500 Climbing FAA TRACON SMA TRACON (SMA)
09:19AM 41.8803 -83.2247 203° Southwest 348 400 15,900 1,560 Climbing FAA TRACON SMA TRACON (SMA)
09:19AM 41.8453 -83.2450 203° Southwest 354 407 16,500 1,620 Climbing FAA TRACON SMA TRACON (SMA)
09:19AM 41.8175 -83.2608 203° Southwest 352 405 17,000 1,500 Climbing FAA TRACON SMA TRACON (SMA)
09:20AM 41.7900 -83.2767 203° Southwest 351 404 17,500 1,500 Climbing FAA TRACON SMA TRACON (SMA)
09:20AM 41.7617 -83.2917 202° Southwest 353 406 18,000 840 Climbing FAA TRACON SMA TRACON (SMA)
09:20AM 41.7264 -83.3106 202° Southwest 354 407 18,100 660 Climbing FAA TRACON SMA TRACON (SMA)
09:21AM 41.6981 -83.3272 204° Southwest 358 412 18,500 1,200 Climbing FAA TRACON SMA TRACON (SMA)
09:21AM 41.6594 -83.3394 193° South 376 433 18,900 1,500 Climbing FAA TRACON SMA TRACON (SMA)
09:21AM 41.6267 -83.3397 180° South 386 444 19,500 1,980 Climbing FAA TRACON SMA TRACON (SMA)
09:22AM 41.5942 -83.3378 177° South 377 434 20,200 1,980 Climbing FAA TRACON SMA TRACON (SMA)
09:22AM 41.5611 -83.3361 178° South 374 430 20,800 1,620 Climbing FAA TRACON SMA TRACON (SMA)
09:22AM 41.5233 -83.3428 188° South 366 421 21,300 1,560 Climbing FAA TRACON SMA TRACON (SMA)
09:23AM 41.4933 -83.3539 196° South 364 419 21,900 1,560 Climbing FAA TRACON SMA TRACON (SMA)
09:23AM 41.4647 -83.3697 203° Southwest 351 404 22,400 1,680 Climbing FAA TRACON SMA TRACON (SMA)
09:23AM 41.4303 -83.3906 204° Southwest 353 406 23,000 1,500 Climbing FAA TRACON SMA TRACON (SMA)
09:24AM 41.4022 -83.4069 204° Southwest 354 407 23,400 1,020 Climbing FAA TRACON SMA TRACON (SMA)
09:24AM 41.3744 -83.4231 204° Southwest 355 409 23,700 900 Climbing FAA TRACON SMA TRACON (SMA)
09:24AM 41.3464 -83.4397 204° Southwest 356 410 24,000 420 Climbing FAA TRACON SMA TRACON (SMA)
09:25AM 41.3464 -83.4397 236° Southwest 356 410 24,000 900 Level FAA TRACON SMA TRACON (SMA)
09:26AM 41.2178 -83.5119 203° Southwest 363 418 25,400 900 Climbing Cleveland Center
09:27AM 41.1119 -83.5761 205° Southwest 369 425 26,000 180 Climbing Cleveland Center
09:29AM 40.9108 -83.6903 203° Southwest 410 472 26,000  Level Indianapolis Center
09:30AM 40.8003 -83.7533 203° Southwest 426 490 26,000  Level Indianapolis Center
09:31AM 40.6894 -83.8161 203° Southwest 432 497 26,000  Level Indianapolis Center
09:32AM 40.5778 -83.8789 203° Southwest 432 497 26,000  Level Indianapolis Center
09:33AM 40.4650 -83.9442 204° Southwest 439 505 26,000  Level Indianapolis Center
09:34AM 40.3525 -84.0067 203° Southwest 439 505 26,000 -60 Level Indianapolis Center
09:35AM 40.2214 -84.0794 203° Southwest 437 503 25,900 -780 Descending Indianapolis Center
09:36AM 40.1069 -84.1386 202° Southwest 439 505 24,500 -1,020 Descending Indianapolis Center
09:37AM 39.9925 -84.1989 202° Southwest 441 507 23,900 -300 Descending Indianapolis Center
09:38AM 39.8733 -84.2408 195° South 444 511 24,000  Climbing Indianapolis Center
09:39AM 39.7503 -84.2744 192° South 448 516 24,000 -60 Level Indianapolis Center
09:40AM 39.6261 -84.3086 192° South 454 522 23,900  Descending Indianapolis Center
09:41AM 39.4961 -84.3878 205° Southwest 439 505 24,000 -300 Climbing Indianapolis Center
09:42AM 39.3872 -84.4583 207° Southwest 436 502 23,300 -540 Descending Indianapolis Center
09:43AM 39.2800 -84.5308 208° Southwest 432 497 22,900 -540 Descending Indianapolis Center
09:44AM 39.1717 -84.6022 207° Southwest 433 498 22,200 -1,200 Descending Indianapolis Center
09:45AM 39.0686 -84.6711 207° Southwest 418 481 20,500 -1,920 Descending Indianapolis Center
09:46AM 38.9703 -84.7475 211° Southwest 410 472 18,300 -2,040 Descending Indianapolis Center
09:47AM 38.8794 -84.8383 218° Southwest 403 464 16,400 -1,980 Descending Indianapolis Center
09:48AM 38.7933 -84.9208 217° Southwest 392 451 14,300 -1,260 Descending Indianapolis Center
09:49AM 38.7069 -85.0019 216° Southwest 386 444 13,900 -840 Descending Indianapolis Center
09:50AM 38.6117 -85.0961 218° Southwest 375 432 12,600 -960 Descending Indianapolis Center
09:51AM 38.5300 -85.1728 216° Southwest 368 423 12,000 -540 Descending Indianapolis Center
09:52AM 38.4444 -85.2533 216° Southwest 362 417 11,500 -840 Descending Indianapolis Center
09:53AM 38.3961 -85.2989 216° Southwest 355 409 10,700 -1,200 Descending FAA TRACON SMA TRACON (SMA)
09:53AM 38.3714 -85.3228 217° Southwest 359 413 10,400 -840 Descending FAA TRACON SMA TRACON (SMA)
09:54AM 38.3478 -85.3453 217° Southwest 353 406 10,200 -540 Descending FAA TRACON SMA TRACON (SMA)
09:54AM 38.3256 -85.3661 216° Southwest 334 384 10,100 -480 Descending FAA TRACON SMA TRACON (SMA)
09:54AM 38.3006 -85.3900 217° Southwest 300 345 9,900 -1,080 Descending FAA TRACON SMA TRACON (SMA)
09:55AM 38.2814 -85.4083 217° Southwest 285 328 9,400 -1,560 Descending FAA TRACON SMA TRACON (SMA)
09:55AM 38.2578 -85.4306 216° Southwest 275 316 8,800 -1,440 Descending FAA TRACON SMA TRACON (SMA)
09:55AM 38.2381 -85.4458 211° Southwest 271 312 8,400 -1,500 Descending FAA TRACON SMA TRACON (SMA)
09:56AM 38.2178 -85.4589 207° Southwest 267 307 7,900 -1,680 Descending FAA TRACON SMA TRACON (SMA)
09:56AM 38.1969 -85.4708 204° Southwest 267 307 7,400 -1,380 Descending FAA TRACON SMA TRACON (SMA)
09:56AM 38.1764 -85.4825 204° Southwest 264 304 7,000 -1,380 Descending FAA TRACON SMA TRACON (SMA)
09:57AM 38.1517 -85.4972 205° Southwest 257 296 6,500 -1,320 Descending FAA TRACON SMA TRACON (SMA)
09:57AM 38.1322 -85.5089 205° Southwest 251 289 6,100 -780 Descending FAA TRACON SMA TRACON (SMA)
09:57AM 38.1075 -85.5233 205° Southwest 253 291 6,000 -600 Descending FAA TRACON SMA TRACON (SMA)
09:58AM 38.0881 -85.5347 205° Southwest 251 289 5,700 -1,260 Descending FAA TRACON SMA TRACON (SMA)
09:58AM 38.0686 -85.5456 204° Southwest 249 287 5,200 -1,860 Descending FAA TRACON SMA TRACON (SMA)
09:58AM 38.0442 -85.5594 204° Southwest 248 285 4,400 -1,680 Descending FAA TRACON SMA TRACON (SMA)
09:59AM 38.0258 -85.5719 208° Southwest 248 285 4,000 -1,500 Descending FAA TRACON SMA TRACON (SMA)
09:59AM 38.0164 -85.5947 242° Southwest 250 288 3,500 -1,500 Descending FAA TRACON SMA TRACON (SMA)
09:59AM 38.0114 -85.6200 256° West 242 278 3,100 -960 Descending FAA TRACON SMA TRACON (SMA)
10:00AM 38.0136 -85.6500 275° West 240 276 2,900 -180 Descending FAA TRACON SMA TRACON (SMA)
10:00AM 38.0286 -85.6686 316° Northwest 245 282 3,000 240 Climbing FAA TRACON SMA TRACON (SMA)